Time;durP1;ratioP1;P1;durP2;ratioP2;P2;SDS_P1;SDS_P2;PMS_P1;PMS_P2;Temp;Humidity;BMP_temperature;BMP_pressure;BME280_temperature;BME280_humidity;BME280_pressure;Samples;Min_cycle;Max_cycle;Signal;HPM_P1;HPM_P2
2022/02/03 00:01:50;;;;;;;30.00;23.02;;;9.50;99.90;;;;;;5064205;28;20039;-60
2022/02/03 00:04:19;;;;;;;30.50;23.60;;;9.50;99.90;;;;;;5068907;28;20043;-60
2022/02/03 00:06:51;;;;;;;35.33;24.80;;;9.60;99.90;;;;;;5062047;28;20481;-61
2022/02/03 00:23:13;;;;;;;25.30;20.88;;;9.60;99.90;;;;;;5071279;28;20021;-61
2022/02/03 00:25:42;;;;;;;30.48;23.77;;;9.60;99.90;;;;;;5061961;28;20369;-60
2022/02/03 00:28:17;;;;;;;32.72;24.55;;;9.50;99.90;;;;;;5065453;28;20052;-60
2022/02/03 00:33:28;;;;;;;33.70;25.25;;;9.50;99.90;;;;;;5065831;28;20021;-60
2022/02/03 00:36:11;;;;;;;33.30;25.80;;;9.50;99.90;;;;;;5064843;28;20033;-60
2022/02/03 00:49:54;;;;;;;40.13;29.70;;;9.50;99.90;;;;;;5061749;28;20560;-60
2022/02/03 00:52:20;;;;;;;43.88;33.30;;;9.50;99.90;;;;;;5062969;28;20060;-60
2022/02/03 00:54:45;;;;;;;45.53;33.28;;;9.40;99.90;;;;;;5068057;28;20052;-60
2022/02/03 00:57:17;;;;;;;45.08;33.03;;;9.40;99.90;;;;;;5064979;28;20020;-60
2022/02/03 00:59:56;;;;;;;46.50;34.13;;;9.40;99.90;;;;;;5065408;28;20016;-61
2022/02/03 01:02:24;;;;;;;48.38;36.53;;;9.50;99.90;;;;;;5066159;28;20024;-60
2022/02/03 01:04:53;;;;;;;46.47;35.28;;;9.40;99.90;;;;;;5061914;28;20037;-60
2022/02/03 01:07:20;;;;;;;50.58;34.30;;;9.40;99.90;;;;;;5063037;28;20019;-60
2022/02/03 01:10:14;;;;;;;52.00;35.50;;;9.40;99.90;;;;;;5060890;28;20132;-60
2022/02/03 01:12:45;;;;;;;47.95;34.63;;;9.50;99.90;;;;;;5069036;28;20040;-60
2022/02/03 01:15:22;;;;;;;47.80;34.65;;;9.50;99.90;;;;;;5065716;28;20052;-60
2022/02/03 01:18:04;;;;;;;50.65;36.53;;;9.40;99.90;;;;;;5063017;28;20028;-60
2022/02/03 01:36:58;;;;;;;48.45;35.30;;;9.50;99.90;;;;;;5067441;28;20499;-60
2022/02/03 01:45:07;;;;;;;47.50;34.38;;;9.50;99.90;;;;;;5073826;28;20024;-59
2022/02/03 01:47:53;;;;;;;46.97;35.00;;;9.60;99.90;;;;;;5082688;28;20024;-60
2022/02/03 01:52:51;;;;;;;45.33;32.90;;;9.60;99.90;;;;;;5069845;28;20031;-60
2022/02/03 01:55:20;;;;;;;44.25;32.40;;;9.60;99.90;;;;;;5069630;28;20016;-60
2022/02/03 01:58:07;;;;;;;53.72;37.45;;;9.60;99.90;;;;;;5071886;28;20016;-60
2022/02/03 02:00:44;;;;;;;48.50;34.58;;;9.60;99.90;;;;;;5066046;28;20040;-60
2022/02/03 02:03:10;;;;;;;51.65;36.38;;;9.60;99.90;;;;;;5069382;28;20024;-60
2022/02/03 02:06:07;;;;;;;50.88;36.35;;;9.60;99.90;;;;;;5068683;28;20074;-60
2022/02/03 02:09:14;;;;;;;54.92;38.10;;;9.60;99.90;;;;;;5077643;28;20035;-61
2022/02/03 02:12:15;;;;;;;57.75;40.45;;;9.60;99.90;;;;;;5053298;28;20029;-60
2022/02/03 02:15:39;;;;;;;55.25;40.50;;;9.50;99.90;;;;;;5066966;28;20064;-60
2022/02/03 02:38:30;;;;;;;48.30;34.33;;;9.50;99.90;;;;;;5070213;28;20073;-60
2022/02/03 02:42:07;;;;;;;49.00;35.92;;;9.50;99.90;;;;;;5063395;28;20021;-60
2022/02/03 02:44:30;;;;;;;48.67;35.85;;;9.50;99.90;;;;;;5082194;28;20126;-60
2022/02/03 02:46:56;;;;;;;48.53;35.13;;;9.50;99.90;;;;;;5069415;28;20017;-60
2022/02/03 02:49:48;;;;;;;49.22;36.08;;;9.50;99.90;;;;;;5075932;28;20150;-60
2022/02/03 02:52:23;;;;;;;49.97;33.17;;;9.50;99.90;;;;;;5068457;28;20107;-60
2022/02/03 02:55:10;;;;;;;42.60;31.98;;;9.50;99.90;;;;;;5071060;28;20029;-60
2022/02/03 03:36:14;;;;;;;35.00;25.08;;;9.40;99.90;;;;;;5074547;28;20112;-60
2022/02/03 03:38:42;;;;;;;38.20;24.88;;;9.40;99.90;;;;;;5074725;28;20103;-60
2022/02/03 03:41:15;;;;;;;29.60;23.08;;;9.40;99.90;;;;;;5074512;28;20016;-60
2022/02/03 03:44:10;;;;;;;;;;;;;;;;;;;;;
2022/02/03 03:46:39;;;;;;;33.55;25.55;;;9.30;99.90;;;;;;5070781;28;20021;-60
2022/02/03 03:49:21;;;;;;;36.50;25.38;;;9.30;99.90;;;;;;5070843;28;20753;-60
2022/02/03 03:51:55;;;;;;;44.50;30.02;;;9.30;99.90;;;;;;5070542;28;20380;-60
2022/02/03 03:57:13;;;;;;;37.78;27.50;;;9.30;99.90;;;;;;5068542;28;20119;-60
2022/02/03 04:51:03;;;;;;;24.90;17.10;;;9.00;99.90;;;;;;5061379;28;20016;-60
2022/02/03 04:55:17;;;;;;;23.45;17.95;;;9.00;99.90;;;;;;5010732;28;20497;-61
2022/02/03 05:06:32;;;;;;;23.17;15.70;;;8.80;99.90;;;;;;5065671;28;20445;-60
2022/02/03 05:09:27;;;;;;;21.92;14.98;;;8.90;99.90;;;;;;5070391;28;20021;-60
2022/02/03 05:12:28;;;;;;;25.15;17.73;;;8.80;99.90;;;;;;5069885;28;20021;-60
2022/02/03 05:18:06;;;;;;;21.73;16.08;;;8.80;99.90;;;;;;5069740;28;20041;-60
2022/02/03 05:24:23;;;;;;;22.20;14.85;;;8.80;99.90;;;;;;5070938;28;20538;-60
2022/02/03 05:51:32;;;;;;;15.80;11.77;;;8.80;99.90;;;;;;5049768;28;20036;-61
2022/02/03 06:02:45;;;;;;;12.80;7.75;;;8.60;99.90;;;;;;5067146;28;20522;-60
2022/02/03 06:05:32;;;;;;;13.32;6.72;;;8.70;99.90;;;;;;5065372;28;20397;-60
2022/02/03 06:08:23;;;;;;;;;;;8.70;99.90;;;;;;5064717;28;20476;-60
2022/02/03 06:13:44;;;;;;;10.00;4.60;;;8.60;99.90;;;;;;5063277;28;20055;-60
2022/02/03 06:21:31;;;;;;;9.68;3.47;;;8.60;99.90;;;;;;5065524;28;20404;-60
2022/02/03 06:29:23;;;;;;;10.40;3.40;;;8.50;99.90;;;;;;5072704;28;20479;-60
2022/02/03 06:31:51;;;;;;;4.88;2.25;;;8.50;99.90;;;;;;5072865;28;20024;-60
2022/02/03 06:34:18;;;;;;;8.52;3.53;;;8.50;99.90;;;;;;5072897;28;20032;-60
2022/02/03 06:36:44;;;;;;;5.55;3.03;;;8.50;99.90;;;;;;5072446;28;20468;-60
2022/02/03 06:39:16;;;;;;;5.45;2.35;;;8.50;99.90;;;;;;5072958;28;20078;-60
2022/02/03 06:41:42;;;;;;;9.95;2.70;;;8.50;99.90;;;;;;5072384;28;20488;-61
2022/02/03 06:44:08;;;;;;;8.98;3.10;;;8.50;99.90;;;;;;5072752;28;20032;-60
2022/02/03 06:46:36;;;;;;;7.32;3.40;;;8.40;99.90;;;;;;5072775;28;20025;-60
2022/02/03 06:49:12;;;;;;;6.35;2.70;;;8.40;99.90;;;;;;5072930;28;20492;-60
2022/02/03 06:51:46;;;;;;;6.63;3.25;;;8.40;99.90;;;;;;5072685;28;20024;-61
2022/02/03 06:54:19;;;;;;;8.88;3.40;;;8.40;99.90;;;;;;5080331;28;20023;-60
2022/02/03 06:56:56;;;;;;;8.07;3.28;;;8.40;99.90;;;;;;5092196;28;20024;-60
2022/02/03 06:59:29;;;;;;;8.82;3.83;;;8.40;99.90;;;;;;5108421;28;20430;-60
2022/02/03 07:01:55;;;;;;;9.30;3.70;;;8.40;99.90;;;;;;5092946;28;20103;-60
2022/02/03 07:04:25;;;;;;;10.05;3.90;;;8.30;99.90;;;;;;5092876;28;20099;-60
2022/02/03 07:06:51;;;;;;;8.30;4.50;;;8.30;99.90;;;;;;5085264;28;20021;-60
2022/02/03 07:09:16;;;;;;;10.68;4.80;;;8.40;99.90;;;;;;5070611;28;20028;-60
2022/02/03 07:11:43;;;;;;;13.07;5.30;;;8.30;99.90;;;;;;5070954;28;20025;-60
2022/02/03 07:14:10;;;;;;;11.60;6.47;;;8.30;99.90;;;;;;5070759;28;20127;-60
2022/02/03 07:16:45;;;;;;;7.00;4.82;;;8.30;99.90;;;;;;5071237;28;20039;-60
2022/02/03 07:19:11;;;;;;;9.52;5.82;;;8.30;99.90;;;;;;5070730;28;20048;-60
2022/02/03 07:21:37;;;;;;;12.50;6.40;;;8.30;99.90;;;;;;5072080;28;20057;-60
2022/02/03 07:24:02;;;;;;;12.48;6.75;;;8.30;99.90;;;;;;5072200;28;20371;-60
2022/02/03 07:26:28;;;;;;;9.70;6.40;;;8.30;99.90;;;;;;5071221;28;20032;-60
2022/02/03 07:28:53;;;;;;;13.43;7.50;;;8.30;99.90;;;;;;5070632;28;20112;-60
2022/02/03 07:31:19;;;;;;;12.75;7.25;;;8.20;99.90;;;;;;5072324;28;20025;-60
2022/02/03 07:33:44;;;;;;;14.95;7.75;;;8.30;99.90;;;;;;5072316;28;20032;-60
2022/02/03 07:36:11;;;;;;;14.93;8.45;;;8.20;99.90;;;;;;5072242;28;20047;-60
2022/02/03 07:38:40;;;;;;;13.05;7.85;;;8.20;99.90;;;;;;5072346;28;20449;-60
2022/02/03 07:41:05;;;;;;;14.80;8.70;;;8.30;99.90;;;;;;5072167;28;20078;-60
2022/02/03 07:43:31;;;;;;;11.27;7.60;;;8.20;99.90;;;;;;5072342;28;20017;-60
2022/02/03 07:45:58;;;;;;;14.07;7.47;;;8.30;99.90;;;;;;5072120;28;20099;-60
2022/02/03 07:48:24;;;;;;;12.95;8.30;;;8.30;99.90;;;;;;5087767;28;20024;-59
2022/02/03 07:50:49;;;;;;;12.55;8.57;;;8.20;99.90;;;;;;5072271;28;20429;-60
2022/02/03 07:53:15;;;;;;;13.07;7.90;;;8.30;99.90;;;;;;5073782;28;20036;-60
2022/02/03 07:55:41;;;;;;;14.30;8.48;;;8.30;99.90;;;;;;5096150;28;20043;-60
2022/02/03 07:58:06;;;;;;;12.95;7.88;;;8.30;99.90;;;;;;5077877;28;20025;-60
2022/02/03 08:00:32;;;;;;;13.73;8.18;;;8.30;99.90;;;;;;5075925;28;20392;-60
2022/02/03 08:02:57;;;;;;;14.48;8.48;;;8.30;99.90;;;;;;5075738;28;20020;-60
2022/02/03 08:05:24;;;;;;;16.70;9.10;;;8.30;99.90;;;;;;5075771;28;20028;-60
2022/02/03 08:07:55;;;;;;;12.57;8.73;;;8.30;99.90;;;;;;5075536;28;20027;-60
2022/02/03 08:10:37;;;;;;;14.73;8.45;;;8.30;99.90;;;;;;5075529;28;20024;-60
2022/02/03 08:13:05;;;;;;;16.95;8.48;;;8.30;99.90;;;;;;5073572;28;20286;-60
2022/02/03 08:15:33;;;;;;;14.63;8.25;;;8.30;99.90;;;;;;5073689;28;20027;-60
2022/02/03 08:18:05;;;;;;;13.70;7.93;;;8.30;99.90;;;;;;5074865;28;20523;-60
2022/02/03 08:20:31;;;;;;;13.60;8.93;;;8.40;99.90;;;;;;5075434;28;20082;-60
2022/02/03 08:25:49;;;;;;;15.77;8.70;;;8.40;99.90;;;;;;5072237;28;20044;-60
2022/02/03 08:31:02;;;;;;;14.98;9.27;;;8.40;99.90;;;;;;5071868;28;20031;-60
2022/02/03 08:33:29;;;;;;;14.60;9.40;;;8.40;99.90;;;;;;5073633;28;20017;-60
2022/02/03 08:35:57;;;;;;;12.57;8.23;;;8.40;99.90;;;;;;5073721;28;20103;-59
2022/02/03 08:38:44;;;;;;;14.52;9.38;;;8.40;99.90;;;;;;5074397;28;20380;-60
2022/02/03 08:41:10;;;;;;;15.25;9.88;;;8.40;99.90;;;;;;5074949;28;20431;-60
2022/02/03 08:43:37;;;;;;;15.10;9.25;;;8.40;99.90;;;;;;5075175;28;20099;-60
2022/02/03 08:46:05;;;;;;;15.80;9.73;;;8.40;99.90;;;;;;5074909;28;20024;-60
2022/02/03 08:48:31;;;;;;;14.15;9.32;;;8.40;99.90;;;;;;5067684;28;20021;-60
2022/02/03 08:50:58;;;;;;;12.57;9.00;;;8.40;99.90;;;;;;5064590;28;20021;-60
2022/02/03 08:53:32;;;;;;;13.55;8.88;;;8.40;99.90;;;;;;5073151;28;20111;-60
2022/02/03 08:58:48;;;;;;;12.38;8.73;;;8.40;99.90;;;;;;5071871;28;20021;-60
2022/02/03 09:50:06;;;;;;;13.40;7.60;;;8.30;99.90;;;;;;5060332;28;20465;-60
2022/02/03 09:50:56;;;;;;;11.88;7.07;;;8.40;99.90;;;;;;5074081;28;20494;-60
2022/02/03 09:56:14;;;;;;;13.68;7.50;;;8.30;99.90;;;;;;5053753;28;20025;-59
2022/02/03 09:58:54;;;;;;;14.80;6.85;;;8.40;99.90;;;;;;5053719;28;20017;-60
2022/02/03 10:01:34;;;;;;;10.88;6.70;;;8.30;99.90;;;;;;5056895;28;20095;-60
2022/02/03 10:04:12;;;;;;;11.32;6.07;;;8.30;99.90;;;;;;5067943;28;20154;-60
2022/02/03 10:06:55;;;;;;;11.05;7.30;;;8.30;99.90;;;;;;5067210;28;20029;-60
2022/02/03 10:09:38;;;;;;;12.60;6.90;;;8.30;99.90;;;;;;5065701;28;20105;-60
2022/02/03 10:12:03;;;;;;;10.85;5.90;;;8.40;99.90;;;;;;5072529;28;20104;-61
2022/02/03 10:14:34;;;;;;;15.68;6.55;;;8.40;99.90;;;;;;5071224;28;20149;-60
2022/02/03 10:17:01;;;;;;;12.15;6.22;;;8.40;99.90;;;;;;5067622;28;20031;-60
2022/02/03 10:19:40;;;;;;;11.52;6.35;;;8.50;99.90;;;;;;5073146;28;20017;-60
2022/02/03 10:22:18;;;;;;;9.82;5.93;;;8.50;99.90;;;;;;5086660;28;20031;-60
2022/02/03 10:24:47;;;;;;;10.57;6.15;;;8.50;99.90;;;;;;5071815;28;20484;-61
2022/02/03 10:30:26;;;;;;;12.40;6.28;;;8.60;99.90;;;;;;5050958;28;20431;-60
2022/02/03 10:32:53;;;;;;;11.30;5.45;;;8.60;99.90;;;;;;5069904;28;20054;-61
2022/02/03 10:35:27;;;;;;;10.82;6.70;;;8.50;99.90;;;;;;5072192;28;20055;-60
2022/02/03 11:02:40;;;;;;;15.50;6.30;;;8.60;99.90;;;;;;5035432;28;20029;-60
2022/02/03 11:07:49;;;;;;;16.30;8.68;;;8.70;99.90;;;;;;5067203;28;20028;-60
2022/02/03 11:10:27;;;;;;;18.42;7.40;;;8.70;99.80;;;;;;5067039;28;20051;-61
2022/02/03 11:12:53;;;;;;;14.07;6.43;;;8.70;99.50;;;;;;5083980;28;20024;-60
2022/02/03 11:15:23;;;;;;;12.77;8.20;;;8.70;99.50;;;;;;5070718;28;20119;-60
2022/02/03 11:17:53;;;;;;;12.63;6.88;;;8.80;99.20;;;;;;5076485;28;20419;-61
2022/02/03 11:20:21;;;;;;;14.43;7.97;;;8.80;99.10;;;;;;5071267;28;20063;-60
2022/02/03 11:22:55;;;;;;;15.50;7.15;;;8.80;99.10;;;;;;5072483;28;20020;-60
2022/02/03 11:49:16;;;;;;;15.55;8.13;;;8.90;98.10;;;;;;5074126;28;20025;-60
2022/02/03 11:54:41;;;;;;;18.13;8.02;;;8.90;97.70;;;;;;5075355;28;20384;-60
2022/02/03 12:03:07;;;;;;;10.88;6.22;;;9.10;97.50;;;;;;5074146;28;20030;-60
2022/02/03 12:22:02;;;;;;;15.48;5.53;;;9.50;97.00;;;;;;5073701;28;20037;-60
2022/02/03 12:24:39;;;;;;;10.55;5.35;;;9.30;96.70;;;;;;5074068;28;20043;-61
2022/02/03 12:27:27;;;;;;;9.40;5.22;;;9.30;96.70;;;;;;5070082;28;20028;-60
2022/02/03 12:30:06;;;;;;;9.20;5.97;;;9.30;96.90;;;;;;5073568;28;20194;-61
2022/02/03 12:38:21;;;;;;;9.88;5.65;;;9.10;97.30;;;;;;5072767;28;20035;-60
2022/02/03 12:40:56;;;;;;;13.73;5.55;;;9.10;97.30;;;;;;5073405;28;20031;-60
2022/02/03 12:43:35;;;;;;;12.30;6.28;;;9.00;97.40;;;;;;5071500;28;20035;-60
2022/02/03 12:46:02;;;;;;;9.30;5.82;;;8.90;97.90;;;;;;5072075;28;20387;-60
2022/02/03 12:48:34;;;;;;;13.68;6.03;;;8.80;98.20;;;;;;5072971;28;20399;-61
2022/02/03 12:51:01;;;;;;;10.80;5.72;;;8.80;98.60;;;;;;5072520;28;20511;-60
2022/02/03 12:53:34;;;;;;;10.70;5.72;;;8.60;98.90;;;;;;5074163;28;20024;-61
2022/02/03 12:56:06;;;;;;;10.88;5.75;;;8.70;99.20;;;;;;5072852;28;20021;-60
2022/02/03 12:58:38;;;;;;;14.15;5.90;;;8.70;99.50;;;;;;5073642;28;20024;-60
2022/02/03 13:01:10;;;;;;;11.07;5.82;;;8.70;99.60;;;;;;5071862;28;20024;-60
2022/02/03 13:03:45;;;;;;;11.35;5.63;;;8.70;99.70;;;;;;5073029;28;20532;-60
2022/02/03 13:06:19;;;;;;;11.27;5.88;;;8.70;99.70;;;;;;5073048;28;20070;-60
2022/02/03 13:08:51;;;;;;;12.50;6.43;;;8.60;99.70;;;;;;5070031;28;20012;-60
2022/02/03 13:13:59;;;;;;;11.43;5.85;;;8.60;99.80;;;;;;5072814;28;20048;-60
2022/02/03 13:16:25;;;;;;;9.98;4.95;;;8.60;99.80;;;;;;5070180;28;20023;-60
2022/02/03 13:26:57;;;;;;;10.82;5.53;;;8.60;99.90;;;;;;5070984;28;20024;-60
2022/02/03 13:29:42;;;;;;;10.77;5.53;;;8.60;99.90;;;;;;5070563;28;20094;-60
2022/02/03 13:32:12;;;;;;;8.57;5.78;;;8.60;99.90;;;;;;5070066;28;20461;-60
2022/02/03 13:34:46;;;;;;;11.45;5.63;;;8.50;99.90;;;;;;5069645;28;20504;-60
2022/02/03 13:37:24;;;;;;;9.90;5.28;;;8.50;99.90;;;;;;5070430;28;20056;-61
2022/02/03 13:40:05;;;;;;;10.23;5.88;;;8.50;99.90;;;;;;5047012;28;20032;-60
2022/02/03 13:42:32;;;;;;;10.95;6.13;;;8.50;99.90;;;;;;5062306;28;20029;-60
2022/02/03 13:45:06;;;;;;;11.38;6.53;;;8.40;99.90;;;;;;5071671;28;20140;-60
2022/02/03 13:47:35;;;;;;;11.25;6.00;;;8.40;99.90;;;;;;5069415;28;20038;-60
2022/02/03 13:50:05;;;;;;;10.23;6.68;;;8.40;99.90;;;;;;5066527;28;20396;-60
2022/02/03 13:52:42;;;;;;;10.32;5.80;;;8.40;99.90;;;;;;5068706;28;20035;-60
2022/02/03 14:16:19;;;;;;;13.30;7.00;;;8.40;99.90;;;;;;5073086;28;20036;-60
2022/02/03 14:19:13;;;;;;;12.13;7.20;;;8.40;99.90;;;;;;5064426;28;20027;-60
2022/02/03 14:26:59;;;;;;;13.43;7.43;;;8.20;99.90;;;;;;5070977;28;20031;-60
2022/02/03 14:29:27;;;;;;;16.92;9.30;;;8.20;99.90;;;;;;5071373;28;20025;-60
2022/02/03 14:32:03;;;;;;;12.80;7.55;;;8.20;99.90;;;;;;5072281;28;20021;-60
2022/02/03 14:34:32;;;;;;;14.63;8.48;;;8.20;99.90;;;;;;5068821;28;20473;-60
2022/02/03 14:40:02;;;;;;;13.93;7.32;;;8.10;99.90;;;;;;5069824;28;20388;-60
2022/02/03 14:42:31;;;;;;;10.73;7.38;;;8.10;99.90;;;;;;5063409;28;20434;-60
2022/02/03 14:44:57;;;;;;;13.20;7.10;;;8.00;99.90;;;;;;5033814;28;20036;-60
2022/02/03 14:47:27;;;;;;;15.32;7.97;;;8.00;99.90;;;;;;5026343;28;20087;-60
2022/02/03 14:49:53;;;;;;;12.82;8.00;;;8.00;99.90;;;;;;5049766;28;20013;-60
2022/02/03 14:52:27;;;;;;;13.00;7.50;;;8.00;99.90;;;;;;5068555;28;20016;-60
2022/02/03 15:00:24;;;;;;;16.38;8.85;;;7.90;99.90;;;;;;5066830;28;20033;-60
2022/02/03 15:02:50;;;;;;;14.20;7.63;;;7.90;99.90;;;;;;5062696;28;20032;-60
2022/02/03 15:05:24;;;;;;;14.75;7.25;;;7.90;99.90;;;;;;5057984;28;20583;-60
2022/02/03 15:07:56;;;;;;;14.77;7.90;;;7.90;99.90;;;;;;5064154;28;20056;-60
2022/02/03 15:10:41;;;;;;;14.60;7.88;;;7.90;99.90;;;;;;5065941;28;20036;-60
2022/02/03 15:13:15;;;;;;;13.35;8.48;;;7.90;99.90;;;;;;5065371;28;20028;-60
2022/02/03 15:15:41;;;;;;;14.52;7.70;;;7.90;99.90;;;;;;5062099;28;20473;-60
2022/02/03 15:18:08;;;;;;;14.95;7.53;;;7.90;99.90;;;;;;5064978;28;20041;-60
2022/02/03 15:20:35;;;;;;;14.35;7.82;;;7.90;99.90;;;;;;5065438;28;20008;-60
2022/02/03 15:23:01;;;;;;;14.15;7.25;;;7.90;99.90;;;;;;5068307;28;20308;-60
2022/02/03 15:25:58;;;;;;;12.57;7.65;;;7.90;99.90;;;;;;5067632;28;20055;-60
2022/02/03 15:28:24;;;;;;;12.55;8.07;;;7.90;99.90;;;;;;5069772;28;20039;-60
2022/02/03 15:30:50;;;;;;;16.00;7.88;;;7.90;99.90;;;;;;5069847;28;20100;-60
2022/02/03 15:33:21;;;;;;;12.27;7.93;;;7.90;99.90;;;;;;5065946;28;20028;-60
2022/02/03 15:35:54;;;;;;;13.60;7.63;;;7.90;99.90;;;;;;5058096;28;20024;-60
2022/02/03 15:38:21;;;;;;;16.83;8.55;;;7.90;99.90;;;;;;5069883;28;20557;-60
2022/02/03 15:40:49;;;;;;;12.95;8.50;;;7.80;99.90;;;;;;5066505;28;20388;-60
2022/02/03 15:43:43;;;;;;;13.43;8.23;;;7.80;99.90;;;;;;5070777;28;20028;-60
2022/02/03 15:46:11;;;;;;;13.27;8.60;;;7.80;99.90;;;;;;5064450;28;20032;-60
2022/02/03 15:56:16;;;;;;;11.57;7.70;;;7.80;99.90;;;;;;5070955;28;20078;-60
2022/02/03 15:57:05;;;;;;;14.13;8.93;;;7.80;99.90;;;;;;5056393;28;20059;-60
2022/02/03 16:16:45;;;;;;;13.70;10.48;;;7.80;99.90;;;;;;5063488;28;20112;-60
2022/02/03 16:18:33;;;;;;;15.63;11.10;;;7.80;99.90;;;;;;5071228;28;20036;-60
2022/02/03 16:24:18;;;;;;;;;;;;;;;;;;;;;
2022/02/03 16:51:37;;;;;;;27.73;16.85;;;7.70;99.90;;;;;;5074920;28;20495;-60
2022/02/03 16:54:08;;;;;;;21.33;15.40;;;7.80;99.90;;;;;;5074909;28;20067;-60
2022/02/03 16:56:34;;;;;;;20.17;15.75;;;7.80;99.90;;;;;;5072136;28;20508;-60
2022/02/03 16:59:00;;;;;;;22.95;15.90;;;7.80;99.90;;;;;;5074186;28;20025;-60
2022/02/03 17:01:26;;;;;;;22.65;15.65;;;7.80;99.90;;;;;;5072812;28;20147;-60
2022/02/03 17:03:52;;;;;;;23.27;16.60;;;7.80;99.90;;;;;;5074192;28;20500;-60
2022/02/03 17:06:18;;;;;;;25.30;18.15;;;7.80;99.90;;;;;;5074665;28;20427;-60
2022/02/03 17:08:44;;;;;;;25.15;18.45;;;7.80;99.90;;;;;;5074527;28;20503;-60
2022/02/03 17:11:09;;;;;;;25.30;17.15;;;7.80;99.90;;;;;;5074226;28;20376;-60
2022/02/03 17:13:35;;;;;;;24.48;18.25;;;7.80;99.90;;;;;;5073193;28;20075;-60
2022/02/03 17:16:00;;;;;;;26.10;17.25;;;7.80;99.90;;;;;;5074224;28;20024;-60
2022/02/03 17:18:26;;;;;;;23.67;17.60;;;7.80;99.90;;;;;;5073004;28;20526;-60
2022/02/03 17:20:51;;;;;;;25.15;18.63;;;7.80;99.90;;;;;;5056422;28;20017;-60
2022/02/03 17:23:21;;;;;;;24.80;18.55;;;7.80;99.90;;;;;;5074151;28;20491;-60
2022/02/03 17:26:28;;;;;;;24.52;18.77;;;7.80;99.90;;;;;;5071262;28;20024;-60
2022/02/03 17:28:51;;;;;;;22.83;18.30;;;7.70;99.90;;;;;;5070309;28;20047;-60
2022/02/03 17:31:24;;;;;;;24.85;18.80;;;7.80;99.90;;;;;;5073425;28;20472;-59
2022/02/03 17:52:14;;;;;;;24.33;18.88;;;7.80;99.90;;;;;;5051589;28;20040;-60
2022/02/03 18:05:27;;;;;;;34.42;22.48;;;7.80;99.90;;;;;;5093841;28;20039;-60
2022/02/03 18:10:11;;;;;;;27.77;21.20;;;7.70;99.90;;;;;;5063808;28;20043;-60
2022/02/03 18:19:22;;;;;;;26.98;20.05;;;7.60;99.90;;;;;;5072589;28;20507;-60
2022/02/03 18:50:59;;;;;;;29.48;22.63;;;7.70;99.90;;;;;;5069007;28;20029;-60
2022/02/03 18:58:31;;;;;;;27.77;21.63;;;7.60;99.90;;;;;;5059721;28;20024;-60
2022/02/03 19:28:43;;;;;;;32.58;24.30;;;7.60;99.90;;;;;;5069542;28;20389;-60
2022/02/03 20:00:05;;;;;;;40.40;26.80;;;7.60;99.90;;;;;;5093040;28;20057;-60
2022/02/03 20:04:57;;;;;;;43.40;29.33;;;7.60;99.90;;;;;;5093468;28;20073;-60
2022/02/03 20:09:21;;;;;;;43.25;28.48;;;7.60;99.90;;;;;;5091311;28;20059;-60
2022/02/03 20:11:49;;;;;;;41.10;29.13;;;7.60;99.90;;;;;;5072540;28;20029;-60
2022/02/03 20:14:14;;;;;;;40.30;28.67;;;7.60;99.90;;;;;;5072167;28;20056;-60
2022/02/03 20:16:42;;;;;;;37.03;27.65;;;7.70;99.90;;;;;;5071023;28;20040;-60
2022/02/03 20:19:07;;;;;;;42.05;29.95;;;7.60;99.90;;;;;;5072308;28;20024;-59
2022/02/03 20:21:35;;;;;;;46.30;30.80;;;7.70;99.90;;;;;;5072401;28;20035;-60
2022/02/03 20:24:03;;;;;;;42.42;30.05;;;7.70;99.90;;;;;;5072557;28;20036;-59
2022/02/03 20:26:29;;;;;;;39.28;29.08;;;7.70;99.90;;;;;;5071656;28;20024;-60
2022/02/03 20:28:54;;;;;;;44.60;31.13;;;7.70;99.90;;;;;;5072126;28;20024;-60
2022/02/03 20:31:20;;;;;;;41.30;30.58;;;7.70;99.90;;;;;;5072165;28;20031;-60
2022/02/03 20:33:45;;;;;;;47.08;31.75;;;7.70;99.90;;;;;;5072355;28;20025;-60
2022/02/03 20:36:11;;;;;;;48.38;31.88;;;7.70;99.90;;;;;;5070948;28;20051;-59
2022/02/03 20:38:37;;;;;;;41.92;29.90;;;7.70;99.90;;;;;;5072038;28;20396;-59
2022/02/03 20:41:03;;;;;;;45.15;31.58;;;7.70;99.90;;;;;;5072437;28;20056;-60
2022/02/03 20:43:28;;;;;;;45.47;32.45;;;7.80;99.90;;;;;;5070671;28;20031;-59
2022/02/03 20:45:54;;;;;;;45.80;32.28;;;7.70;99.90;;;;;;5070198;28;20025;-60
2022/02/03 20:48:19;;;;;;;46.70;31.60;;;7.70;99.90;;;;;;5072193;28;20020;-60
2022/02/03 20:50:46;;;;;;;49.58;34.67;;;7.80;99.90;;;;;;5070610;28;20070;-60
2022/02/03 20:53:13;;;;;;;47.30;33.50;;;7.80;99.90;;;;;;5071563;28;20032;-59
2022/02/03 20:55:45;;;;;;;48.65;33.78;;;7.80;99.90;;;;;;5092253;28;20024;-60
2022/02/03 20:58:14;;;;;;;48.55;33.22;;;7.80;99.90;;;;;;5091936;28;20079;-60
2022/02/03 21:00:45;;;;;;;48.80;34.55;;;7.80;99.90;;;;;;5091581;28;20020;-59
2022/02/03 21:05:40;;;;;;;49.85;34.00;;;7.80;99.90;;;;;;5092139;28;20110;-60
2022/02/03 21:08:05;;;;;;;47.97;33.22;;;7.80;99.90;;;;;;5092048;28;20120;-59
2022/02/03 21:10:32;;;;;;;49.60;33.08;;;7.80;99.90;;;;;;5078488;28;20103;-60
2022/02/03 21:12:58;;;;;;;49.28;34.30;;;7.80;99.90;;;;;;5066771;28;20028;-60
2022/02/03 21:15:30;;;;;;;46.83;33.35;;;7.80;99.90;;;;;;5058164;28;20045;-60
2022/02/03 21:18:01;;;;;;;45.80;33.25;;;7.80;99.90;;;;;;5067391;28;20021;-60
2022/02/03 21:20:27;;;;;;;48.38;32.75;;;7.80;99.90;;;;;;5066371;28;20029;-60
2022/02/03 21:22:53;;;;;;;45.55;32.75;;;7.80;99.90;;;;;;5051794;28;20025;-60
2022/02/03 21:25:28;;;;;;;45.50;33.80;;;7.80;99.90;;;;;;5056905;28;20029;-60
2022/02/03 21:27:56;;;;;;;49.72;34.65;;;7.80;99.90;;;;;;5051087;28;20021;-60
2022/02/03 21:30:23;;;;;;;49.17;34.00;;;7.80;99.90;;;;;;5033299;28;20029;-60
2022/02/03 21:32:50;;;;;;;46.38;32.63;;;7.90;99.90;;;;;;5051424;28;20032;-60
2022/02/03 21:35:18;;;;;;;47.78;33.20;;;7.80;99.90;;;;;;5050730;28;20033;-60
2022/02/03 21:37:44;;;;;;;46.30;31.67;;;7.80;99.90;;;;;;5050890;28;20037;-60
2022/02/03 21:40:10;;;;;;;51.92;34.53;;;7.80;99.90;;;;;;5051123;28;20491;-60
2022/02/03 21:42:37;;;;;;;46.10;33.20;;;7.80;99.90;;;;;;5050873;28;20025;-60
2022/02/03 21:45:04;;;;;;;46.47;31.83;;;7.80;99.90;;;;;;5050585;28;20033;-59
2022/02/03 21:47:29;;;;;;;48.70;34.05;;;7.90;99.90;;;;;;5050690;28;20039;-60
2022/02/03 21:49:55;;;;;;;45.45;32.60;;;7.90;99.90;;;;;;5050901;28;20400;-59
2022/02/03 21:52:22;;;;;;;49.47;34.50;;;7.90;99.90;;;;;;5050931;28;20056;-60
2022/02/03 21:54:49;;;;;;;48.92;33.50;;;7.90;99.90;;;;;;5063038;28;20456;-60
2022/02/03 21:57:15;;;;;;;45.45;32.08;;;7.90;99.90;;;;;;5068891;28;20039;-60
2022/02/03 21:59:41;;;;;;;43.53;31.70;;;7.90;99.90;;;;;;5061278;28;20096;-60
2022/02/03 22:02:08;;;;;;;45.28;32.78;;;7.80;99.90;;;;;;5067337;28;20033;-60
2022/02/03 22:04:34;;;;;;;48.85;34.75;;;7.80;99.90;;;;;;5063921;28;20048;-60
2022/02/03 22:06:59;;;;;;;51.35;34.63;;;7.90;99.90;;;;;;5061497;28;20024;-60
2022/02/03 22:09:25;;;;;;;48.60;32.45;;;7.90;99.90;;;;;;5069052;28;20358;-60
2022/02/03 22:11:50;;;;;;;47.92;32.72;;;7.90;99.90;;;;;;5064821;28;20032;-60
2022/02/03 22:14:16;;;;;;;50.88;33.33;;;7.90;99.90;;;;;;5062299;28;20067;-59
2022/02/03 22:16:42;;;;;;;44.88;32.97;;;7.80;99.90;;;;;;5060613;28;20558;-60
2022/02/03 22:19:08;;;;;;;43.22;31.58;;;7.80;99.90;;;;;;5069192;28;20384;-60
2022/02/03 22:24:14;;;;;;;44.22;31.67;;;7.80;99.90;;;;;;5061078;28;20365;-59
2022/02/03 22:43:35;;;;;;;48.85;33.80;;;7.80;99.90;;;;;;5063506;28;20427;-59
2022/02/03 22:46:22;;;;;;;51.60;35.25;;;7.80;99.90;;;;;;5061027;28;20377;-60
2022/02/03 22:48:48;;;;;;;53.38;36.03;;;7.80;99.90;;;;;;5060779;28;20076;-60
2022/02/03 22:51:13;;;;;;;51.78;35.58;;;7.80;99.90;;;;;;5065714;28;20017;-59
2022/02/03 22:53:41;;;;;;;50.20;34.80;;;7.80;99.90;;;;;;5060088;28;20021;-59
2022/02/03 22:56:10;;;;;;;49.92;35.35;;;7.80;99.90;;;;;;5063000;28;20035;-59
2022/02/03 23:01:14;;;;;;;51.90;35.10;;;7.90;99.90;;;;;;5058657;28;20021;-59
2022/02/03 23:03:42;;;;;;;49.28;35.50;;;7.90;99.90;;;;;;5057871;28;20094;-59
2022/02/03 23:06:09;;;;;;;51.13;36.17;;;7.90;99.90;;;;;;5063761;28;20024;-59
2022/02/03 23:16:39;;;;;;;46.47;32.65;;;7.90;99.90;;;;;;5065957;28;20516;-59
2022/02/03 23:19:33;;;;;;;48.67;32.78;;;7.90;99.90;;;;;;5058490;28;20416;-60
2022/02/03 23:22:32;;;;;;;47.80;32.28;;;7.90;99.90;;;;;;5065891;28;20025;-60
2022/02/03 23:24:52;;;;;;;46.03;32.92;;;7.90;99.90;;;;;;5066985;28;20039;-60
2022/02/03 23:27:49;;;;;;;46.28;33.72;;;7.90;99.90;;;;;;5068861;28;20507;-60
2022/02/03 23:30:14;;;;;;;47.90;33.75;;;7.90;99.90;;;;;;5066719;28;20495;-60
2022/02/03 23:32:40;;;;;;;43.38;32.30;;;7.90;99.90;;;;;;5066162;28;20028;-59
2022/02/03 23:35:15;;;;;;;49.45;33.13;;;7.90;99.90;;;;;;5054254;28;20388;-59
2022/02/03 23:37:44;;;;;;;42.58;30.55;;;7.90;99.90;;;;;;5063396;28;20677;-60
2022/02/03 23:40:17;;;;;;;41.75;30.05;;;8.00;99.90;;;;;;5066196;28;20558;-59
2022/02/03 23:43:25;;;;;;;44.63;32.55;;;8.00;99.90;;;;;;5063308;28;20025;-60